Terminal Aerodrome Forecast
Issued by NWS

Home | Current Version | Previous Version | Text Only | Print | Product List | Glossary On
Versions: 1 2 3 4 5 6 7 8 9 10 11 12 13 14 15 16 17 18 19 20 21 22 23 24 25 26 27 28 29 30 31 32 33 34 35 36 37 38 39 40 41 42 43 44 45 46 47 48
644
FTUS43 KLOT 192327
TAFGYY
TAF
KGYY 192327Z 2000/2024 07005KT P6SM FEW150 SCT250
     FM200200 12004KT P6SM BKN250
     FM201000 15006KT 3SM BR SCT005 BKN250
      TEMPO 2011/2015 1/2SM FG OVC004
     FM201600 16010KT 4SM BR FEW006 BKN015 OVC200
     FM201900 15012G18KT P6SM BKN150=

USA.gov is the U.S. government's official web portal to all federal, state and local government web resources and services.